Time;durP1;ratioP1;P1;durP2;ratioP2;P2;SDS_P1;SDS_P2;PMS_P1;PMS_P2;Temp;Humidity;BMP_temperature;BMP_pressure;BME280_temperature;BME280_humidity;BME280_pressure;Samples;Min_cycle;Max_cycle;Signal;HPM_P1;HPM_P2
2022/09/07 00:00:51;;;;;;;;;;;;;;;17.82;79.08;101297.91;5043566;28;19924;-56
2022/09/07 00:03:16;;;;;;;;;;;;;;;17.72;79.34;101300.19;5049146;28;19943;-56
2022/09/07 00:05:45;;;;;;;;;;;;;;;17.55;79.82;101305.09;5049776;28;19940;-57
2022/09/07 00:08:10;;;;;;;;;;;;;;;17.43;79.65;101298.69;5045524;28;19966;-57
2022/09/07 00:10:36;;;;;;;;;;;;;;;17.40;79.71;101291.03;5043522;28;19929;-56
2022/09/07 00:13:01;;;;;;;;;;;;;;;17.47;79.99;101287.34;5043536;28;20498;-56
2022/09/07 00:15:26;;;;;;;;;;;;;;;17.55;79.90;101289.81;5040612;28;19971;-56
2022/09/07 00:17:52;;;;;;;;;;;;;;;17.59;80.02;101291.06;5048795;28;19927;-56
2022/09/07 00:20:17;;;;;;;;;;;;;;;17.60;79.99;101284.66;5042285;28;19917;-56
2022/09/07 00:22:42;;;;;;;;;;;;;;;17.58;79.71;101280.50;5043935;28;20027;-56
2022/09/07 00:25:08;;;;;;;;;;;;;;;17.58;79.71;101251.78;5042485;28;20379;-56
2022/09/07 00:27:33;;;;;;;;;;;;;;;17.62;79.47;101238.78;5043663;28;19917;-55
2022/09/07 00:29:58;;;;;;;;;;;;;;;17.62;79.80;101234.22;5045858;28;20015;-57
2022/09/07 00:32:23;;;;;;;;;;;;;;;17.74;79.68;101223.72;5046172;28;19931;-56
2022/09/07 00:34:49;;;;;;;;;;;;;;;17.82;79.80;101220.00;5042939;28;19917;-56
2022/09/07 00:37:14;;;;;;;;;;;;;;;17.87;79.69;101225.56;5040879;28;19916;-58
2022/09/07 00:39:39;;;;;;;;;;;;;;;17.91;79.40;101229.47;5046421;28;20015;-55
2022/09/07 00:42:04;;;;;;;;;;;;;;;17.92;79.16;101226.59;5049129;28;20414;-56
2022/09/07 00:44:55;;;;;;;;;;;;;;;17.93;78.72;101230.97;5045473;28;19964;-56
2022/09/07 00:47:31;;;;;;;;;;;;;;;17.97;78.73;101231.34;5048658;28;19931;-57
2022/09/07 00:49:58;;;;;;;;;;;;;;;17.98;78.47;101226.81;5047850;28;19982;-56
2022/09/07 00:52:26;;;;;;;;;;;;;;;17.98;78.34;101214.19;5042462;28;20304;-56
2022/09/07 00:54:53;;;;;;;;;;;;;;;18.01;78.73;101207.56;5041422;28;20003;-56
2022/09/07 00:57:18;;;;;;;;;;;;;;;18.03;78.63;101198.25;5041237;28;19982;-57
2022/09/07 00:59:45;;;;;;;;;;;;;;;18.07;78.75;101191.41;5043579;28;19916;-57
2022/09/07 01:02:12;;;;;;;;;;;;;;;18.08;78.68;101185.00;5041787;28;20265;-56
2022/09/07 01:04:37;;;;;;;;;;;;;;;18.08;78.16;101190.38;5039746;28;19962;-55
2022/09/07 01:07:04;;;;;;;;;;;;;;;18.12;78.60;101196.16;5044101;28;19917;-55
2022/09/07 01:09:29;;;;;;;;;;;;;;;18.12;78.26;101191.59;5046669;28;20399;-57
2022/09/07 01:11:56;;;;;;;;;;;;;;;18.12;78.15;101186.22;5043932;28;19917;-56
2022/09/07 01:14:23;;;;;;;;;;;;;;;18.13;77.90;101189.75;5046075;28;19927;-55
2022/09/07 01:16:49;;;;;;;;;;;;;;;18.14;77.94;101186.84;5051549;28;20017;-57
2022/09/07 01:19:38;;;;;;;;;;;;;;;18.15;77.83;101183.13;5043217;28;20010;-57
2022/09/07 01:22:19;;;;;;;;;;;;;;;18.17;77.67;101190.97;5078419;28;19939;-55
2022/09/07 01:24:56;;;;;;;;;;;;;;;18.18;77.46;101195.31;5047682;28;19920;-57
2022/09/07 01:27:33;;;;;;;;;;;;;;;18.17;77.25;101185.59;5056070;28;19928;-56
2022/09/07 01:30:03;;;;;;;;;;;;;;;18.13;77.43;101181.69;5054371;28;20434;-56
2022/09/07 01:32:28;;;;;;;;;;;;;;;18.16;77.47;101178.56;5046695;28;20268;-57
2022/09/07 01:34:53;;;;;;;;;;;;;;;18.15;77.37;101183.13;5047838;28;20407;-56
2022/09/07 01:37:28;;;;;;;;;;;;;;;18.17;77.24;101193.66;5048703;28;19917;-56
2022/09/07 01:40:03;;;;;;;;;;;;;;;18.16;77.70;101192.00;5046612;28;19916;-57
2022/09/07 01:42:33;;;;;;;;;;;;;;;18.17;77.85;101182.91;5046724;28;19923;-56
2022/09/07 01:45:03;;;;;;;;;;;;;;;18.17;77.74;101185.59;5045197;28;19917;-55
2022/09/07 01:47:40;;;;;;;;;;;;;;;18.16;77.98;101184.75;5048015;28;19920;-57
2022/09/07 01:50:11;;;;;;;;;;;;;;;18.18;77.48;101179.19;5046031;28;19928;-57
2022/09/07 01:52:55;;;;;;;;;;;;;;;18.17;77.63;101175.66;5043576;28;20456;-56
2022/09/07 01:55:28;;;;;;;;;;;;;;;18.16;78.14;101174.00;5045737;28;20343;-56
2022/09/07 01:58:11;;;;;;;;;;;;;;;18.15;77.83;101169.69;5045410;28;20371;-56
2022/09/07 02:00:39;;;;;;;;;;;;;;;18.17;77.86;101180.22;5043901;28;19917;-56
2022/09/07 02:03:12;;;;;;;;;;;;;;;18.17;77.77;101188.28;5046646;28;19956;-56
2022/09/07 02:05:58;;;;;;;;;;;;;;;18.18;78.02;101192.63;5044179;28;19923;-55
2022/09/07 02:08:37;;;;;;;;;;;;;;;18.17;77.93;101181.03;5044860;28;20055;-57
2022/09/07 02:11:23;;;;;;;;;;;;;;;18.18;77.76;101171.94;5045231;28;20406;-55
2022/09/07 02:13:53;;;;;;;;;;;;;;;18.16;78.21;101183.94;5046282;28;19924;-56
2022/09/07 02:16:21;;;;;;;;;;;;;;;18.16;78.02;101186.63;5045847;28;20056;-56
2022/09/07 02:18:48;;;;;;;;;;;;;;;18.15;77.72;101185.81;5042723;28;19947;-57
2022/09/07 02:21:16;;;;;;;;;;;;;;;18.12;78.01;101188.91;5040715;28;19970;-57
2022/09/07 02:24:03;;;;;;;;;;;;;;;18.10;77.76;101182.94;5052041;28;19924;-57
2022/09/07 02:26:29;;;;;;;;;;;;;;;18.09;77.71;101181.28;5046096;28;19917;-56
2022/09/07 02:28:55;;;;;;;;;;;;;;;18.05;77.83;101169.31;5044970;28;19917;-56
2022/09/07 02:31:21;;;;;;;;;;;;;;;18.04;78.17;101178.41;5045255;28;19925;-56
2022/09/07 02:33:46;;;;;;;;;;;;;;;18.04;78.11;101166.84;5049972;28;20003;-57
2022/09/07 02:36:15;;;;;;;;;;;;;;;17.99;77.89;101170.16;5044922;28;19971;-56
2022/09/07 02:38:40;;;;;;;;;;;;;;;17.99;78.37;101167.47;5046561;28;19943;-56
2022/09/07 02:41:25;;;;;;;;;;;;;;;17.99;77.74;101170.16;5047527;28;20388;-57
2022/09/07 02:43:50;;;;;;;;;;;;;;;17.98;77.59;101163.13;5049626;28;20391;-56
2022/09/07 02:46:25;;;;;;;;;;;;;;;17.94;77.27;101167.28;5051720;28;20011;-57
2022/09/07 02:49:23;;;;;;;;;;;;;;;17.91;77.08;101165.81;5044729;28;20019;-57
2022/09/07 02:52:17;;;;;;;;;;;;;;;17.88;77.34;101173.47;5054043;28;19920;-56
2022/09/07 02:55:01;;;;;;;;;;;;;;;17.84;77.52;101178.44;5048940;28;19916;-56
2022/09/07 02:57:36;;;;;;;;;;;;;;;17.81;77.43;101172.69;5051845;28;19920;-57
2022/09/07 03:00:10;;;;;;;;;;;;;;;17.79;77.36;101172.06;5051463;28;19921;-57
2022/09/07 03:02:40;;;;;;;;;;;;;;;17.73;77.73;101176.41;5046238;28;19924;-57
2022/09/07 03:05:08;;;;;;;;;;;;;;;17.67;77.11;101176.41;5051539;28;19925;-56
2022/09/07 03:07:36;;;;;;;;;;;;;;;17.64;77.14;101178.47;5049395;28;20387;-57
2022/09/07 03:10:04;;;;;;;;;;;;;;;17.62;77.30;101182.38;5047401;28;19921;-56
2022/09/07 03:12:43;;;;;;;;;;;;;;;17.60;77.48;101181.75;5047853;28;19924;-56
2022/09/07 03:15:10;;;;;;;;;;;;;;;17.60;76.96;101184.44;5046330;28;20075;-56
2022/09/07 03:17:35;;;;;;;;;;;;;;;17.58;77.20;101187.34;5054121;28;19920;-57
2022/09/07 03:20:00;;;;;;;;;;;;;;;17.52;78.17;101190.88;5050543;28;19931;-57
2022/09/07 03:22:25;;;;;;;;;;;;;;;17.32;78.29;101184.66;5050264;28;20003;-57
2022/09/07 03:24:51;;;;;;;;;;;;;;;17.19;78.68;101181.97;5050189;28;20011;-55
2022/09/07 03:27:16;;;;;;;;;;;;;;;17.14;78.88;101179.09;5046613;28;20433;-55
2022/09/07 03:29:41;;;;;;;;;;;;;;;17.09;79.62;101189.63;5050022;28;19920;-56
2022/09/07 03:32:06;;;;;;;;;;;;;;;16.95;79.69;101184.22;5046178;28;19920;-57
2022/09/07 03:34:32;;;;;;;;;;;;;;;16.86;80.66;101182.78;5053070;28;19920;-56
2022/09/07 03:36:57;;;;;;;;;;;;;;;16.81;81.40;101187.09;5045603;28;19938;-56
2022/09/07 03:39:23;;;;;;;;;;;;;;;16.75;81.81;101186.03;5046179;28;19920;-56
2022/09/07 03:41:49;;;;;;;;;;;;;;;16.67;81.98;101181.69;5047283;28;19923;-56
2022/09/07 03:44:14;;;;;;;;;;;;;;;16.62;82.40;101178.75;5048068;28;19920;-56
2022/09/07 03:46:39;;;;;;;;;;;;;;;16.63;82.38;101174.22;5048155;28;19921;-57
2022/09/07 03:49:04;;;;;;;;;;;;;;;16.62;82.57;101177.94;5048497;28;19921;-57
2022/09/07 03:51:30;;;;;;;;;;;;;;;16.61;82.15;101176.28;5045166;28;19927;-55
2022/09/07 03:53:56;;;;;;;;;;;;;;;16.56;81.48;101176.88;5047793;28;19924;-56
2022/09/07 03:56:22;;;;;;;;;;;;;;;16.50;81.71;101184.91;5052825;28;19925;-55
2022/09/07 03:58:48;;;;;;;;;;;;;;;16.32;81.80;101194.31;5050757;28;19928;-55
2022/09/07 04:01:15;;;;;;;;;;;;;;;16.18;82.96;101197.94;5045406;28;19917;-56
2022/09/07 04:03:41;;;;;;;;;;;;;;;16.10;83.25;101174.00;5050307;28;19921;-55
2022/09/07 04:06:07;;;;;;;;;;;;;;;16.12;82.92;101169.28;5045399;28;20023;-57
2022/09/07 04:08:33;;;;;;;;;;;;;;;16.18;83.17;101171.16;5052869;28;19970;-56
2022/09/07 04:10:59;;;;;;;;;;;;;;;16.17;83.27;101171.34;5044008;28;20580;-55
2022/09/07 04:13:25;;;;;;;;;;;;;;;16.14;82.94;101166.38;5048401;28;19924;-56
2022/09/07 04:15:50;;;;;;;;;;;;;;;16.09;82.73;101158.94;5043400;28;19927;-57
2022/09/07 04:18:16;;;;;;;;;;;;;;;16.07;83.17;101147.63;5046832;28;19924;-56
2022/09/07 04:20:41;;;;;;;;;;;;;;;16.05;82.87;101147.81;5045032;28;20019;-57
2022/09/07 04:23:06;;;;;;;;;;;;;;;16.05;83.22;101147.00;5052087;28;20451;-57
2022/09/07 04:25:33;;;;;;;;;;;;;;;16.05;82.99;101133.59;5050506;28;19920;-57
2022/09/07 04:27:59;;;;;;;;;;;;;;;16.13;82.79;101141.44;5048225;28;19921;-57
2022/09/07 04:30:24;;;;;;;;;;;;;;;16.20;83.12;101136.13;5044796;28;19931;-56
2022/09/07 04:32:49;;;;;;;;;;;;;;;16.23;83.65;101130.38;5049133;28;19967;-57
2022/09/07 04:35:14;;;;;;;;;;;;;;;16.28;83.21;101133.28;5047803;28;19960;-56
2022/09/07 04:37:40;;;;;;;;;;;;;;;16.32;83.41;101143.41;5050726;28;19932;-56
2022/09/07 04:40:05;;;;;;;;;;;;;;;16.32;83.54;101150.59;5048433;28;19970;-56
2022/09/07 04:42:30;;;;;;;;;;;;;;;16.30;83.62;101152.66;5049747;28;20316;-55
2022/09/07 04:44:55;;;;;;;;;;;;;;;16.24;83.62;101153.47;5048212;28;20292;-54
2022/09/07 04:47:20;;;;;;;;;;;;;;;16.16;83.80;101150.94;5044995;28;19963;-56
2022/09/07 04:49:48;;;;;;;;;;;;;;;16.05;83.30;101142.44;5048968;28;19946;-58
2022/09/07 04:52:14;;;;;;;;;;;;;;;16.08;83.54;101142.06;5048956;28;20478;-57
2022/09/07 04:54:39;;;;;;;;;;;;;;;16.13;83.59;101141.44;5047408;28;20011;-54
2022/09/07 04:57:04;;;;;;;;;;;;;;;16.17;84.13;101137.34;5050378;28;19920;-56
2022/09/07 04:59:29;;;;;;;;;;;;;;;16.21;84.09;101133.25;5053168;28;19921;-54
2022/09/07 05:01:54;;;;;;;;;;;;;;;16.22;84.58;101137.59;5046779;28;19962;-57
2022/09/07 05:04:20;;;;;;;;;;;;;;;16.16;84.67;101140.22;5049450;28;19924;-57
2022/09/07 05:06:45;;;;;;;;;;;;;;;16.09;84.69;101134.84;5050903;28;20010;-56
2022/09/07 05:09:10;;;;;;;;;;;;;;;16.01;84.38;101138.53;5047267;28;20007;-56
2022/09/07 05:11:35;;;;;;;;;;;;;;;15.95;84.96;101141.19;5046944;28;20284;-57
2022/09/07 05:14:01;;;;;;;;;;;;;;;15.89;85.47;101144.63;5048199;28;20297;-56
2022/09/07 05:16:27;;;;;;;;;;;;;;;15.84;85.98;101157.78;5050551;28;19920;-56
2022/09/07 05:18:56;;;;;;;;;;;;;;;15.77;85.98;101157.75;5046784;28;20303;-56
2022/09/07 05:21:23;;;;;;;;;;;;;;;15.76;85.67;101151.56;5050328;28;19916;-57
2022/09/07 05:23:50;;;;;;;;;;;;;;;15.76;85.78;101146.22;5049350;28;19944;-57
2022/09/07 05:26:15;;;;;;;;;;;;;;;15.88;85.98;101156.34;5050756;28;19971;-57
2022/09/07 05:28:40;;;;;;;;;;;;;;;15.92;85.85;101169.19;5049994;28;19948;-57
2022/09/07 05:31:13;;;;;;;;;;;;;;;15.95;85.81;101167.97;5053524;28;20300;-56
2022/09/07 05:33:39;;;;;;;;;;;;;;;16.03;85.59;101168.63;5055408;28;19913;-56
2022/09/07 05:36:05;;;;;;;;;;;;;;;16.12;85.25;101166.59;5049372;28;19931;-56
2022/09/07 05:38:30;;;;;;;;;;;;;;;16.19;84.73;101164.78;5049168;28;20030;-56
2022/09/07 05:40:58;;;;;;;;;;;;;;;16.24;84.38;101164.19;5049279;28;20447;-57
2022/09/07 05:43:23;;;;;;;;;;;;;;;16.31;84.43;101152.47;5048285;28;20376;-56
2022/09/07 05:45:48;;;;;;;;;;;;;;;16.39;84.06;101152.28;5053008;28;19924;-57
2022/09/07 05:48:13;;;;;;;;;;;;;;;16.43;84.39;101156.19;5047494;28;19917;-56
2022/09/07 05:50:38;;;;;;;;;;;;;;;16.47;84.47;101167.34;5047228;28;19921;-56
2022/09/07 05:53:03;;;;;;;;;;;;;;;16.48;84.63;101165.50;5045857;28;20338;-57
2022/09/07 05:55:32;;;;;;;;;;;;;;;16.49;84.43;101162.63;5049275;28;19925;-56
2022/09/07 05:57:57;;;;;;;;;;;;;;;16.51;84.23;101171.31;5048865;28;19917;-57
2022/09/07 06:00:23;;;;;;;;;;;;;;;16.55;84.29;101171.72;5047595;28;20300;-57
2022/09/07 06:02:48;;;;;;;;;;;;;;;16.58;84.25;101179.38;5048751;28;19955;-57
2022/09/07 06:05:13;;;;;;;;;;;;;;;16.58;84.37;101174.00;5049955;28;19921;-56
2022/09/07 06:07:38;;;;;;;;;;;;;;;16.57;84.01;101169.66;5052662;28;19924;-55
2022/09/07 06:10:07;;;;;;;;;;;;;;;16.59;84.12;101173.78;5048950;28;19917;-57
2022/09/07 06:12:33;;;;;;;;;;;;;;;16.58;84.75;101184.72;5047055;28;19931;-57
2022/09/07 06:15:00;;;;;;;;;;;;;;;16.53;84.73;101185.34;5046675;28;19917;-57
2022/09/07 06:17:25;;;;;;;;;;;;;;;16.50;85.08;101187.59;5051454;28;19917;-57
2022/09/07 06:19:50;;;;;;;;;;;;;;;16.47;85.26;101191.47;5052795;28;19946;-56
2022/09/07 06:22:15;;;;;;;;;;;;;;;16.45;85.59;101196.22;5045473;28;19925;-57
2022/09/07 06:24:40;;;;;;;;;;;;;;;16.42;85.66;101186.72;5046108;28;20047;-54
2022/09/07 06:27:06;;;;;;;;;;;;;;;16.43;85.77;101188.38;5040788;28;19921;-57
2022/09/07 06:29:31;;;;;;;;;;;;;;;16.44;86.01;101189.19;5046581;28;19966;-56
2022/09/07 06:31:57;;;;;;;;;;;;;;;16.43;86.23;101188.38;5043785;28;19912;-57
2022/09/07 06:34:22;;;;;;;;;;;;;;;16.45;86.16;101192.69;5044245;28;19921;-56
2022/09/07 06:36:48;;;;;;;;;;;;;;;16.49;86.15;101196.66;5046822;28;20011;-57
2022/09/07 06:39:13;;;;;;;;;;;;;;;16.52;86.60;101204.31;5048055;28;19921;-57
2022/09/07 06:41:38;;;;;;;;;;;;;;;16.53;86.69;101195.22;5044798;28;19970;-57
2022/09/07 06:44:03;;;;;;;;;;;;;;;16.49;86.67;101194.00;5046606;28;19917;-57
2022/09/07 06:46:28;;;;;;;;;;;;;;;16.47;86.81;101196.84;5046428;28;19920;-56
2022/09/07 06:48:54;;;;;;;;;;;;;;;16.49;86.97;101199.34;5049986;28;19917;-57
2022/09/07 06:51:19;;;;;;;;;;;;;;;16.53;87.78;101196.06;5053338;28;20314;-57
2022/09/07 06:53:45;;;;;;;;;;;;;;;16.57;87.93;101191.94;5054294;28;19913;-56
2022/09/07 06:56:12;;;;;;;;;;;;;;;16.59;88.00;101199.78;5048717;28;19913;-57
2022/09/07 06:58:37;;;;;;;;;;;;;;;16.62;88.36;101204.75;5055345;28;20393;-56
2022/09/07 07:01:08;;;;;;;;;;;;;;;16.58;88.14;101196.28;5047299;28;19917;-56
2022/09/07 07:03:33;;;;;;;;;;;;;;;16.58;88.26;101192.78;5047124;28;20019;-57
2022/09/07 07:05:59;;;;;;;;;;;;;;;16.60;88.66;101198.75;5047115;28;21422;-56
2022/09/07 07:08:24;;;;;;;;;;;;;;;16.67;89.31;101197.78;5049175;28;19975;-56
2022/09/07 07:10:50;;;;;;;;;;;;;;;16.71;89.62;101206.25;5045107;28;19923;-55
2022/09/07 07:13:16;;;;;;;;;;;;;;;16.72;90.19;101206.03;5047983;28;19923;-56
2022/09/07 07:15:41;;;;;;;;;;;;;;;16.79;90.69;101210.63;5051880;28;20413;-56
2022/09/07 07:18:06;;;;;;;;;;;;;;;16.81;90.79;101204.00;5045331;28;19912;-56
2022/09/07 07:20:33;;;;;;;;;;;;;;;16.82;90.61;101199.47;5046854;28;19916;-57
2022/09/07 07:22:58;;;;;;;;;;;;;;;16.86;91.06;101196.19;5043943;28;19921;-56
2022/09/07 07:25:23;;;;;;;;;;;;;;;16.90;91.16;101199.28;5048057;28;19920;-56
2022/09/07 07:27:48;;;;;;;;;;;;;;;16.97;91.39;101209.00;5049763;28;20385;-56
2022/09/07 07:30:15;;;;;;;;;;;;;;;17.01;91.56;101209.41;5050591;28;19924;-56
2022/09/07 07:32:40;;;;;;;;;;;;;;;17.04;91.59;101217.88;5056176;28;19967;-56
2022/09/07 07:35:06;;;;;;;;;;;;;;;17.11;92.04;101219.75;5048721;28;19913;-56
2022/09/07 07:37:31;;;;;;;;;;;;;;;17.17;92.00;101224.31;5046484;28;19974;-56
2022/09/07 07:39:57;;;;;;;;;;;;;;;17.14;91.90;101233.59;5043568;28;20292;-57
2022/09/07 07:42:22;;;;;;;;;;;;;;;17.12;91.72;101235.66;5052650;28;20380;-56
2022/09/07 07:44:48;;;;;;;;;;;;;;;17.13;91.80;101247.22;5049249;28;19913;-56
2022/09/07 07:47:13;;;;;;;;;;;;;;;17.06;91.36;101236.47;5051525;28;19917;-56
2022/09/07 07:49:38;;;;;;;;;;;;;;;17.06;91.58;101230.25;5046067;28;19990;-55
2022/09/07 07:52:05;;;;;;;;;;;;;;;17.06;91.47;101235.63;5046155;28;20404;-56
2022/09/07 07:54:31;;;;;;;;;;;;;;;17.06;91.41;101228.44;5045349;28;19917;-56
2022/09/07 07:56:57;;;;;;;;;;;;;;;17.03;91.86;101245.72;5048076;28;20525;-56
2022/09/07 07:59:22;;;;;;;;;;;;;;;16.98;91.70;101239.31;5052072;28;19913;-56
2022/09/07 08:01:47;;;;;;;;;;;;;;;17.01;91.88;101236.25;5047114;28;19963;-56
2022/09/07 08:04:12;;;;;;;;;;;;;;;17.11;92.34;101246.59;5046031;28;19999;-55
2022/09/07 08:06:41;;;;;;;;;;;;;;;17.20;92.26;101250.75;5048078;28;19913;-56
2022/09/07 08:09:06;;;;;;;;;;;;;;;17.24;92.21;101252.81;5045809;28;19916;-56
2022/09/07 08:11:31;;;;;;;;;;;;;;;17.31;91.80;101255.50;5044703;28;19916;-56
2022/09/07 08:13:59;;;;;;;;;;;;;;;17.42;91.70;101264.81;5048026;28;19913;-54
2022/09/07 08:16:24;;;;;;;;;;;;;;;17.44;91.43;101258.22;5045251;28;19920;-56
2022/09/07 08:18:49;;;;;;;;;;;;;;;17.51;91.37;101259.03;5049502;28;19975;-56
2022/09/07 08:21:15;;;;;;;;;;;;;;;17.58;91.55;101264.41;5047710;28;19999;-56
2022/09/07 08:23:40;;;;;;;;;;;;;;;17.63;91.11;101257.38;5048085;28;20011;-56
2022/09/07 08:26:06;;;;;;;;;;;;;;;17.71;90.70;101253.69;5054358;28;19917;-56
2022/09/07 08:28:32;;;;;;;;;;;;;;;17.76;90.84;101261.97;5053945;28;19917;-57
2022/09/07 08:30:58;;;;;;;;;;;;;;;17.80;90.83;101255.13;5047823;28;19920;-57
2022/09/07 08:33:23;;;;;;;;;;;;;;;17.83;90.32;101257.41;5050296;28;19917;-56
2022/09/07 08:35:56;;;;;;;;;;;;;;;17.95;90.49;101268.38;5050190;28;19917;-57
2022/09/07 08:38:21;;;;;;;;;;;;;;;18.03;90.33;101265.44;5049634;28;19949;-56
2022/09/07 08:40:47;;;;;;;;;;;;;;;18.14;90.05;101274.72;5044000;28;19916;-56
2022/09/07 08:43:22;;;;;;;;;;;;;;;18.17;89.41;101267.06;5049555;28;19917;-57
2022/09/07 08:45:49;;;;;;;;;;;;;;;18.26;89.24;101271.19;5046627;28;19932;-55
2022/09/07 08:48:17;;;;;;;;;;;;;;;18.36;89.40;101264.56;5049904;28;19917;-57
2022/09/07 08:50:43;;;;;;;;;;;;;;;18.48;88.77;101277.13;5050179;28;19921;-57
2022/09/07 08:53:13;;;;;;;;;;;;;;;18.51;87.80;101278.59;5047510;28;19963;-56
2022/09/07 08:55:39;;;;;;;;;;;;;;;18.57;87.68;101277.72;5049905;28;19916;-56
2022/09/07 08:58:24;;;;;;;;;;;;;;;18.63;87.44;101278.78;5049321;28;20392;-57
2022/09/07 09:00:49;;;;;;;;;;;;;;;18.72;87.39;101272.09;5049283;28;19912;-55
2022/09/07 09:03:19;;;;;;;;;;;;;;;18.79;87.14;101271.06;5052034;28;19927;-56
2022/09/07 09:05:47;;;;;;;;;;;;;;;18.87;86.94;101269.97;5051719;28;20035;-55
2022/09/07 09:08:39;;;;;;;;;;;;;;;18.99;87.01;101273.63;5053322;28;19987;-56
2022/09/07 09:11:08;;;;;;;;;;;;;;;19.17;87.17;101276.44;5050736;28;19917;-57
2022/09/07 09:13:40;;;;;;;;;;;;;;;19.27;86.30;101273.25;5047396;28;19923;-56
2022/09/07 09:16:13;;;;;;;;;;;;;;;19.37;85.32;101278.16;5050844;28;20299;-57
2022/09/07 09:18:38;;;;;;;;;;;;;;;19.47;84.95;101279.34;5052393;28;19913;-56
2022/09/07 09:21:06;;;;;;;;;;;;;;;19.58;84.24;101274.31;5052518;28;20007;-55
2022/09/07 09:23:37;;;;;;;;;;;;;;;19.63;83.56;101274.47;5050660;28;19921;-56
2022/09/07 09:26:21;;;;;;;;;;;;;;;19.74;83.23;101273.78;5049551;28;20441;-57
2022/09/07 09:28:46;;;;;;;;;;;;;;;19.94;82.64;101271.72;5049526;28;19917;-57
2022/09/07 09:31:15;;;;;;;;;;;;;;;20.10;82.26;101268.44;5048384;28;19962;-56
2022/09/07 09:33:41;;;;;;;;;;;;;;;20.30;82.32;101264.72;5048772;28;20000;-55
2022/09/07 09:36:21;;;;;;;;;;;;;;;20.52;81.01;101268.63;5047649;28;20008;-56
2022/09/07 09:38:47;;;;;;;;;;;;;;;20.60;78.76;101268.34;5050514;28;19913;-57
2022/09/07 09:41:13;;;;;;;;;;;;;;;20.63;77.87;101270.59;5049015;28;19913;-57
2022/09/07 09:43:50;;;;;;;;;;;;;;;20.79;77.88;101273.72;5049266;28;20459;-57
2022/09/07 09:46:18;;;;;;;;;;;;;;;20.91;76.95;101272.72;5049441;28;19917;-57
2022/09/07 09:48:48;;;;;;;;;;;;;;;21.05;75.39;101276.06;5048058;28;19967;-57
2022/09/07 09:51:14;;;;;;;;;;;;;;;21.24;73.81;101280.41;5048070;28;19939;-56
2022/09/07 09:53:48;;;;;;;;;;;;;;;21.39;73.47;101274.53;5048373;28;19912;-57
2022/09/07 09:56:14;;;;;;;;;;;;;;;21.49;73.53;101264.00;5053308;28;19919;-56
2022/09/07 09:58:41;;;;;;;;;;;;;;;21.54;72.27;101268.72;5050514;28;20391;-57
2022/09/07 10:01:19;;;;;;;;;;;;;;;21.55;71.31;101262.25;5048643;28;20422;-57
2022/09/07 10:03:45;;;;;;;;;;;;;;;21.67;70.85;101264.97;5049269;28;20003;-57
2022/09/07 10:06:13;;;;;;;;;;;;;;;21.63;68.46;101265.44;5049067;28;20004;-57
2022/09/07 10:08:39;;;;;;;;;;;;;;;21.60;67.27;101265.06;5051765;28;19912;-57
2022/09/07 10:11:05;;;;;;;;;;;;;;;21.49;67.23;101263.19;5047120;28;19924;-54
2022/09/07 10:13:45;;;;;;;;;;;;;;;21.34;67.46;101263.63;5044714;28;19924;-56
2022/09/07 10:16:10;;;;;;;;;;;;;;;21.30;68.09;101254.34;5043698;28;19913;-56
2022/09/07 10:18:55;;;;;;;;;;;;;;;21.25;68.30;101255.03;5048365;28;19924;-57
2022/09/07 10:21:23;;;;;;;;;;;;;;;21.38;69.30;101264.78;5043458;28;19913;-57
2022/09/07 10:23:59;;;;;;;;;;;;;;;21.53;68.35;101248.97;5050492;28;19913;-57
2022/09/07 10:26:32;;;;;;;;;;;;;;;21.65;67.25;101246.28;5047518;28;19963;-57
2022/09/07 10:29:21;;;;;;;;;;;;;;;21.81;66.80;101248.28;5051053;28;19919;-57
2022/09/07 10:32:08;;;;;;;;;;;;;;;21.94;65.08;101255.34;5047444;28;19921;-57
2022/09/07 10:34:43;;;;;;;;;;;;;;;21.99;65.90;101246.53;5051609;28;19977;-57
2022/09/07 10:37:09;;;;;;;;;;;;;;;22.17;65.91;101249.13;5054595;28;19919;-57
2022/09/07 10:39:36;;;;;;;;;;;;;;;22.31;64.17;101250.53;5051157;28;19912;-56
2022/09/07 10:42:04;;;;;;;;;;;;;;;22.36;63.27;101252.53;5048278;28;20010;-56
2022/09/07 10:44:29;;;;;;;;;;;;;;;22.46;62.81;101247.31;5050505;28;19917;-57
2022/09/07 10:46:54;;;;;;;;;;;;;;;22.58;63.16;101242.69;5049607;28;19913;-57
2022/09/07 10:49:28;;;;;;;;;;;;;;;22.60;62.93;101240.56;5043599;28;20355;-55
2022/09/07 10:51:53;;;;;;;;;;;;;;;22.63;62.93;101242.78;5048317;28;19924;-57
2022/09/07 10:54:32;;;;;;;;;;;;;;;22.72;63.08;101233.22;5048041;28;19916;-57
2022/09/07 10:57:16;;;;;;;;;;;;;;;22.84;62.44;101238.59;5050303;28;20004;-56
2022/09/07 10:59:50;;;;;;;;;;;;;;;22.89;62.28;101232.50;5049453;28;20078;-57
2022/09/07 11:02:18;;;;;;;;;;;;;;;22.89;61.10;101229.78;5045929;28;19913;-57
2022/09/07 11:04:44;;;;;;;;;;;;;;;22.96;61.25;101239.41;5049237;28;19913;-57
2022/09/07 11:07:25;;;;;;;;;;;;;;;22.93;60.07;101228.22;5047818;28;19932;-57
2022/09/07 11:09:56;;;;;;;;;;;;;;;22.86;60.15;101231.91;5049445;28;19920;-56
2022/09/07 11:12:25;;;;;;;;;;;;;;;22.70;60.78;101226.41;5043940;28;20404;-56
2022/09/07 11:15:15;;;;;;;;;;;;;;;22.60;61.49;101234.34;5046472;28;19916;-56
2022/09/07 11:17:40;;;;;;;;;;;;;;;22.52;61.23;101235.50;5048492;28;19916;-56
2022/09/07 11:20:20;;;;;;;;;;;;;;;22.48;61.19;101232.47;5046023;28;19942;-57
2022/09/07 11:22:52;;;;;;;;;;;;;;;22.50;61.07;101233.06;5044396;28;20012;-57
2022/09/07 11:25:29;;;;;;;;;;;;;;;22.62;60.83;101224.09;5046271;28;19936;-56
2022/09/07 11:27:54;;;;;;;;;;;;;;;22.78;60.39;101226.00;5047007;28;19939;-57
2022/09/07 11:30:21;;;;;;;;;;;;;;;22.90;59.83;101223.31;5046462;28;19925;-57
2022/09/07 11:33:05;;;;;;;;;;;;;;;22.78;59.38;101226.00;5045204;28;20400;-57
2022/09/07 11:35:34;;;;;;;;;;;;;;;22.70;59.76;101218.28;5047431;28;19920;-58
2022/09/07 11:38:02;;;;;;;;;;;;;;;22.80;59.12;101232.00;5043065;28;19920;-57
2022/09/07 11:40:33;;;;;;;;;;;;;;;22.78;59.49;101220.59;5042084;28;19940;-57
2022/09/07 11:43:13;;;;;;;;;;;;;;;22.88;59.24;101223.53;5047249;28;19985;-56
2022/09/07 11:45:42;;;;;;;;;;;;;;;23.01;59.16;101217.81;5046424;28;19913;-57
2022/09/07 11:48:39;;;;;;;;;;;;;;;23.21;58.80;101227.38;5043620;28;19952;-57
2022/09/07 11:51:12;;;;;;;;;;;;;;;23.39;59.15;101219.81;5043280;28;19917;-57
2022/09/07 11:53:41;;;;;;;;;;;;;;;23.52;57.98;101212.44;5042907;28;20292;-57
2022/09/07 11:56:17;;;;;;;;;;;;;;;23.59;58.31;101213.94;5049275;28;19967;-57
2022/09/07 11:58:56;;;;;;;;;;;;;;;23.71;57.55;101206.53;5046193;28;20410;-57
2022/09/07 12:01:33;;;;;;;;;;;;;;;23.84;57.37;101204.53;5044358;28;19921;-56
2022/09/07 12:04:08;;;;;;;;;;;;;;;23.95;56.75;101204.41;5047838;28;19921;-57
2022/09/07 12:06:39;;;;;;;;;;;;;;;23.90;56.35;101204.34;5047967;28;19920;-58
2022/09/07 12:09:19;;;;;;;;;;;;;;;23.97;57.00;101202.28;5047785;28;20002;-58
2022/09/07 12:12:01;;;;;;;;;;;;;;;24.08;56.69;101200.53;5042756;28;19928;-57
2022/09/07 12:14:50;;;;;;;;;;;;;;;24.25;56.35;101201.28;5043752;28;19944;-57
2022/09/07 12:17:15;;;;;;;;;;;;;;;24.37;54.37;101198.50;5036802;28;19999;-57
2022/09/07 12:19:41;;;;;;;;;;;;;;;24.39;54.15;101197.16;5044709;28;20003;-58
2022/09/07 12:22:17;;;;;;;;;;;;;;;24.39;53.78;101194.44;5049426;28;19917;-57
2022/09/07 12:24:50;;;;;;;;;;;;;;;24.52;53.94;101197.81;5046320;28;19917;-57
2022/09/07 12:27:18;;;;;;;;;;;;;;;24.46;53.36;101191.53;5052802;28;19917;-57
2022/09/07 12:29:43;;;;;;;;;;;;;;;24.42;52.60;101195.00;5050699;28;20008;-58
2022/09/07 12:32:08;;;;;;;;;;;;;;;24.52;53.25;101195.13;5043572;28;20019;-57
2022/09/07 12:34:33;;;;;;;;;;;;;;;24.65;53.42;101189.31;5042815;28;20387;-57
2022/09/07 12:37:21;;;;;;;;;;;;;;;24.73;51.72;101186.13;5045898;28;19924;-57
2022/09/07 12:39:47;;;;;;;;;;;;;;;24.81;51.50;101176.69;5046401;28;19916;-58
2022/09/07 12:42:22;;;;;;;;;;;;;;;24.93;51.09;101178.19;5046261;28;19920;-57
2022/09/07 12:45:07;;;;;;;;;;;;;;;24.99;50.44;101182.59;5045910;28;20448;-57